Sparta, New Jersey
Current Conditions -  °F | °C
As of 4:53 AM on Friday 21 Nov 2014 (Local Time) from KFWN Reporting Station
Clear Clear  
Wind Chill: 18°   Ceiling: Unl
Heat Index: 24°   Visibility: 10mi
Dew Point:   Wind: 5mph
Humidity: 51%   Direction: 240°WSW
Pressure: 30.1"   Gusts: NA
Location:  41.03°N, 74.64°W
Report Text: KFWN 210953Z AUTO 24004KT 10SM CLR M04/M13 A3010 RMK AO2 SLP197 T10441133
Loading
Personal Weather Stations






























Interactive Weather Map New forecast layout! Learn more

10-Day Weather Forecast

Advertisements
Track Severe Weather on mobile